sensor_id;sensor_type;location;lat;lon;timestamp;P1;durP1;ratioP1;P2;durP2;ratioP2
52948;SDS011;38812;50.942;3.644;2022-07-04T00:00:05;5.10;;;1.75;;
52948;SDS011;38812;50.942;3.644;2022-07-04T00:02:32;6.32;;;1.17;;
52948;SDS011;38812;50.942;3.644;2022-07-04T00:04:58;5.22;;;1.50;;
52948;SDS011;38812;50.942;3.644;2022-07-04T00:07:24;5.80;;;1.75;;
52948;SDS011;38812;50.942;3.644;2022-07-04T00:09:49;3.97;;;1.52;;
52948;SDS011;38812;50.942;3.644;2022-07-04T00:12:14;8.70;;;1.70;;
52948;SDS011;38812;50.942;3.644;2022-07-04T00:14:40;5.13;;;1.48;;
52948;SDS011;38812;50.942;3.644;2022-07-04T00:17:05;5.80;;;1.55;;
52948;SDS011;38812;50.942;3.644;2022-07-04T00:19:31;4.28;;;1.58;;
52948;SDS011;38812;50.942;3.644;2022-07-04T00:21:56;3.03;;;1.45;;
52948;SDS011;38812;50.942;3.644;2022-07-04T00:24:21;1.48;;;1.15;;
52948;SDS011;38812;50.942;3.644;2022-07-04T00:26:47;9.38;;;1.63;;
52948;SDS011;38812;50.942;3.644;2022-07-04T00:29:12;3.60;;;1.50;;
52948;SDS011;38812;50.942;3.644;2022-07-04T00:31:37;4.93;;;1.52;;
52948;SDS011;38812;50.942;3.644;2022-07-04T00:34:03;5.40;;;1.77;;
52948;SDS011;38812;50.942;3.644;2022-07-04T00:36:28;3.45;;;1.50;;
52948;SDS011;38812;50.942;3.644;2022-07-04T00:38:54;3.22;;;1.50;;
52948;SDS011;38812;50.942;3.644;2022-07-04T00:41:19;3.75;;;1.73;;
52948;SDS011;38812;50.942;3.644;2022-07-04T00:43:58;3.83;;;1.80;;
52948;SDS011;38812;50.942;3.644;2022-07-04T00:46:25;3.80;;;1.33;;
52948;SDS011;38812;50.942;3.644;2022-07-04T00:48:50;4.25;;;1.70;;
52948;SDS011;38812;50.942;3.644;2022-07-04T00:51:16;6.82;;;1.63;;
52948;SDS011;38812;50.942;3.644;2022-07-04T00:53:42;7.40;;;2.33;;
52948;SDS011;38812;50.942;3.644;2022-07-04T00:56:07;2.33;;;1.55;;
52948;SDS011;38812;50.942;3.644;2022-07-04T00:58:32;8.15;;;1.90;;
52948;SDS011;38812;50.942;3.644;2022-07-04T01:00:58;2.63;;;1.40;;
52948;SDS011;38812;50.942;3.644;2022-07-04T01:03:24;3.58;;;1.55;;
52948;SDS011;38812;50.942;3.644;2022-07-04T01:05:49;4.85;;;1.58;;
52948;SDS011;38812;50.942;3.644;2022-07-04T01:08:16;3.67;;;1.63;;
52948;SDS011;38812;50.942;3.644;2022-07-04T01:10:41;5.90;;;1.40;;
52948;SDS011;38812;50.942;3.644;2022-07-04T01:13:07;2.95;;;1.65;;
52948;SDS011;38812;50.942;3.644;2022-07-04T01:15:32;5.47;;;1.67;;
52948;SDS011;38812;50.942;3.644;2022-07-04T01:17:58;2.15;;;1.67;;
52948;SDS011;38812;50.942;3.644;2022-07-04T01:20:23;3.90;;;2.10;;
52948;SDS011;38812;50.942;3.644;2022-07-04T01:22:49;6.88;;;2.00;;
52948;SDS011;38812;50.942;3.644;2022-07-04T01:25:14;4.55;;;1.98;;
52948;SDS011;38812;50.942;3.644;2022-07-04T01:27:40;3.47;;;1.95;;
52948;SDS011;38812;50.942;3.644;2022-07-04T01:30:06;6.13;;;2.63;;
52948;SDS011;38812;50.942;3.644;2022-07-04T01:32:32;3.05;;;2.33;;
52948;SDS011;38812;50.942;3.644;2022-07-04T01:34:57;5.15;;;2.63;;
52948;SDS011;38812;50.942;3.644;2022-07-04T01:37:23;4.78;;;2.70;;
52948;SDS011;38812;50.942;3.644;2022-07-04T01:39:48;4.00;;;2.30;;
52948;SDS011;38812;50.942;3.644;2022-07-04T01:42:13;7.72;;;2.60;;
52948;SDS011;38812;50.942;3.644;2022-07-04T01:44:39;3.20;;;2.00;;
52948;SDS011;38812;50.942;3.644;2022-07-04T01:47:04;6.78;;;2.97;;
52948;SDS011;38812;50.942;3.644;2022-07-04T01:49:30;3.40;;;2.05;;
52948;SDS011;38812;50.942;3.644;2022-07-04T01:51:56;5.93;;;2.38;;
52948;SDS011;38812;50.942;3.644;2022-07-04T01:54:21;2.13;;;1.63;;
52948;SDS011;38812;50.942;3.644;2022-07-04T01:56:47;3.33;;;1.98;;
52948;SDS011;38812;50.942;3.644;2022-07-04T01:59:13;5.63;;;1.90;;
52948;SDS011;38812;50.942;3.644;2022-07-04T02:01:38;16.77;;;2.40;;
52948;SDS011;38812;50.942;3.644;2022-07-04T02:04:04;6.85;;;2.70;;
52948;SDS011;38812;50.942;3.644;2022-07-04T02:06:31;10.30;;;2.72;;
52948;SDS011;38812;50.942;3.644;2022-07-04T02:08:57;3.25;;;2.20;;
52948;SDS011;38812;50.942;3.644;2022-07-04T02:11:41;8.25;;;3.42;;
52948;SDS011;38812;50.942;3.644;2022-07-04T02:14:26;4.95;;;2.05;;
52948;SDS011;38812;50.942;3.644;2022-07-04T02:16:52;4.13;;;2.00;;
52948;SDS011;38812;50.942;3.644;2022-07-04T02:19:18;8.10;;;2.60;;
52948;SDS011;38812;50.942;3.644;2022-07-04T02:21:43;6.07;;;3.10;;
52948;SDS011;38812;50.942;3.644;2022-07-04T02:24:09;8.95;;;3.28;;
52948;SDS011;38812;50.942;3.644;2022-07-04T02:26:35;9.70;;;2.65;;
52948;SDS011;38812;50.942;3.644;2022-07-04T02:29:00;8.68;;;3.03;;
52948;SDS011;38812;50.942;3.644;2022-07-04T02:31:26;6.75;;;2.72;;
52948;SDS011;38812;50.942;3.644;2022-07-04T02:33:51;4.55;;;2.40;;
52948;SDS011;38812;50.942;3.644;2022-07-04T02:36:17;5.18;;;2.35;;
52948;SDS011;38812;50.942;3.644;2022-07-04T02:38:42;8.32;;;2.58;;
52948;SDS011;38812;50.942;3.644;2022-07-04T02:41:07;9.00;;;3.00;;
52948;SDS011;38812;50.942;3.644;2022-07-04T02:43:33;7.35;;;2.50;;
52948;SDS011;38812;50.942;3.644;2022-07-04T02:45:58;7.50;;;2.40;;
52948;SDS011;38812;50.942;3.644;2022-07-04T02:48:23;4.00;;;2.40;;
52948;SDS011;38812;50.942;3.644;2022-07-04T02:50:49;4.05;;;2.33;;
52948;SDS011;38812;50.942;3.644;2022-07-04T02:53:14;4.65;;;1.90;;
52948;SDS011;38812;50.942;3.644;2022-07-04T02:55:39;5.68;;;2.20;;
52948;SDS011;38812;50.942;3.644;2022-07-04T02:58:05;6.75;;;2.08;;
52948;SDS011;38812;50.942;3.644;2022-07-04T03:00:30;12.95;;;2.20;;
52948;SDS011;38812;50.942;3.644;2022-07-04T03:02:56;3.80;;;1.92;;
52948;SDS011;38812;50.942;3.644;2022-07-04T03:05:21;11.40;;;2.10;;
52948;SDS011;38812;50.942;3.644;2022-07-04T03:07:47;10.23;;;2.55;;
52948;SDS011;38812;50.942;3.644;2022-07-04T03:10:12;7.28;;;2.03;;
52948;SDS011;38812;50.942;3.644;2022-07-04T03:12:37;5.97;;;1.90;;
52948;SDS011;38812;50.942;3.644;2022-07-04T03:15:03;5.43;;;2.15;;
52948;SDS011;38812;50.942;3.644;2022-07-04T03:17:29;4.47;;;1.80;;
52948;SDS011;38812;50.942;3.644;2022-07-04T03:19:55;5.97;;;2.38;;
52948;SDS011;38812;50.942;3.644;2022-07-04T03:22:21;5.65;;;2.50;;
52948;SDS011;38812;50.942;3.644;2022-07-04T03:24:46;7.43;;;2.58;;
52948;SDS011;38812;50.942;3.644;2022-07-04T03:27:12;6.43;;;2.92;;
52948;SDS011;38812;50.942;3.644;2022-07-04T03:29:37;7.20;;;2.13;;
52948;SDS011;38812;50.942;3.644;2022-07-04T03:32:03;8.77;;;2.35;;
52948;SDS011;38812;50.942;3.644;2022-07-04T03:34:28;5.50;;;2.70;;
52948;SDS011;38812;50.942;3.644;2022-07-04T03:36:54;4.47;;;2.40;;
52948;SDS011;38812;50.942;3.644;2022-07-04T03:39:19;5.15;;;2.25;;
52948;SDS011;38812;50.942;3.644;2022-07-04T03:41:45;7.10;;;2.38;;
52948;SDS011;38812;50.942;3.644;2022-07-04T03:44:10;8.55;;;2.33;;
52948;SDS011;38812;50.942;3.644;2022-07-04T03:46:35;7.63;;;2.40;;
52948;SDS011;38812;50.942;3.644;2022-07-04T03:49:01;6.30;;;2.33;;
52948;SDS011;38812;50.942;3.644;2022-07-04T03:51:26;6.35;;;2.00;;
52948;SDS011;38812;50.942;3.644;2022-07-04T03:53:52;6.85;;;2.17;;
52948;SDS011;38812;50.942;3.644;2022-07-04T03:56:18;9.15;;;2.85;;
52948;SDS011;38812;50.942;3.644;2022-07-04T03:58:43;11.57;;;2.33;;
52948;SDS011;38812;50.942;3.644;2022-07-04T04:01:13;5.43;;;1.73;;
52948;SDS011;38812;50.942;3.644;2022-07-04T04:03:39;9.85;;;2.00;;
52948;SDS011;38812;50.942;3.644;2022-07-04T04:06:23;7.80;;;2.05;;
52948;SDS011;38812;50.942;3.644;2022-07-04T04:08:48;8.45;;;2.00;;
52948;SDS011;38812;50.942;3.644;2022-07-04T04:11:14;8.10;;;2.60;;
52948;SDS011;38812;50.942;3.644;2022-07-04T04:13:39;7.50;;;1.90;;
52948;SDS011;38812;50.942;3.644;2022-07-04T04:16:04;7.63;;;2.15;;
52948;SDS011;38812;50.942;3.644;2022-07-04T04:18:30;11.95;;;2.05;;
52948;SDS011;38812;50.942;3.644;2022-07-04T04:20:56;7.70;;;1.83;;
52948;SDS011;38812;50.942;3.644;2022-07-04T04:23:21;9.40;;;1.98;;
52948;SDS011;38812;50.942;3.644;2022-07-04T04:25:47;3.67;;;1.83;;
52948;SDS011;38812;50.942;3.644;2022-07-04T04:28:12;10.38;;;2.03;;
52948;SDS011;38812;50.942;3.644;2022-07-04T04:30:37;8.95;;;2.65;;
52948;SDS011;38812;50.942;3.644;2022-07-04T04:33:03;4.80;;;1.58;;
52948;SDS011;38812;50.942;3.644;2022-07-04T04:35:28;14.77;;;2.22;;
52948;SDS011;38812;50.942;3.644;2022-07-04T04:37:54;11.80;;;2.78;;
52948;SDS011;38812;50.942;3.644;2022-07-04T04:40:19;6.80;;;1.92;;
52948;SDS011;38812;50.942;3.644;2022-07-04T04:42:44;6.70;;;2.53;;
52948;SDS011;38812;50.942;3.644;2022-07-04T04:45:10;5.78;;;2.25;;
52948;SDS011;38812;50.942;3.644;2022-07-04T04:47:35;12.50;;;2.05;;
52948;SDS011;38812;50.942;3.644;2022-07-04T04:50:01;8.70;;;1.98;;
52948;SDS011;38812;50.942;3.644;2022-07-04T04:52:26;3.88;;;2.10;;
52948;SDS011;38812;50.942;3.644;2022-07-04T04:54:52;11.50;;;2.25;;
52948;SDS011;38812;50.942;3.644;2022-07-04T04:57:17;7.03;;;1.98;;
52948;SDS011;38812;50.942;3.644;2022-07-04T04:59:42;3.33;;;1.77;;
52948;SDS011;38812;50.942;3.644;2022-07-04T05:02:08;8.88;;;2.33;;
52948;SDS011;38812;50.942;3.644;2022-07-04T05:04:34;7.60;;;2.50;;
52948;SDS011;38812;50.942;3.644;2022-07-04T05:06:59;8.15;;;2.92;;
52948;SDS011;38812;50.942;3.644;2022-07-04T05:09:25;10.82;;;2.85;;
52948;SDS011;38812;50.942;3.644;2022-07-04T05:11:51;8.52;;;2.78;;
52948;SDS011;38812;50.942;3.644;2022-07-04T05:14:16;11.60;;;2.63;;
52948;SDS011;38812;50.942;3.644;2022-07-04T05:16:42;9.48;;;2.38;;
52948;SDS011;38812;50.942;3.644;2022-07-04T05:19:08;9.75;;;2.67;;
52948;SDS011;38812;50.942;3.644;2022-07-04T05:21:34;13.48;;;3.13;;
52948;SDS011;38812;50.942;3.644;2022-07-04T05:23:59;6.45;;;2.38;;
52948;SDS011;38812;50.942;3.644;2022-07-04T05:26:25;4.70;;;2.13;;
52948;SDS011;38812;50.942;3.644;2022-07-04T05:28:51;8.55;;;2.53;;
52948;SDS011;38812;50.942;3.644;2022-07-04T05:31:16;5.43;;;3.13;;
52948;SDS011;38812;50.942;3.644;2022-07-04T05:33:42;8.35;;;2.40;;
52948;SDS011;38812;50.942;3.644;2022-07-04T05:36:07;5.82;;;2.63;;
52948;SDS011;38812;50.942;3.644;2022-07-04T05:38:33;7.25;;;2.50;;
52948;SDS011;38812;50.942;3.644;2022-07-04T05:40:59;9.23;;;2.70;;
52948;SDS011;38812;50.942;3.644;2022-07-04T05:43:24;8.00;;;2.55;;
52948;SDS011;38812;50.942;3.644;2022-07-04T05:45:52;9.50;;;2.25;;
52948;SDS011;38812;50.942;3.644;2022-07-04T05:48:17;12.23;;;3.00;;
52948;SDS011;38812;50.942;3.644;2022-07-04T05:50:43;7.00;;;2.40;;
52948;SDS011;38812;50.942;3.644;2022-07-04T05:53:08;9.55;;;2.42;;
52948;SDS011;38812;50.942;3.644;2022-07-04T05:55:34;12.90;;;2.85;;
52948;SDS011;38812;50.942;3.644;2022-07-04T05:58:00;10.65;;;3.47;;
52948;SDS011;38812;50.942;3.644;2022-07-04T06:00:25;11.75;;;3.25;;
52948;SDS011;38812;50.942;3.644;2022-07-04T06:02:51;11.00;;;2.67;;
52948;SDS011;38812;50.942;3.644;2022-07-04T06:05:16;8.02;;;2.70;;
52948;SDS011;38812;50.942;3.644;2022-07-04T06:07:42;9.85;;;2.75;;
52948;SDS011;38812;50.942;3.644;2022-07-04T06:10:08;9.48;;;3.47;;
52948;SDS011;38812;50.942;3.644;2022-07-04T06:12:33;9.23;;;3.03;;
52948;SDS011;38812;50.942;3.644;2022-07-04T06:14:59;10.82;;;3.90;;
52948;SDS011;38812;50.942;3.644;2022-07-04T06:17:24;14.35;;;4.93;;
52948;SDS011;38812;50.942;3.644;2022-07-04T06:19:50;19.70;;;5.55;;
52948;SDS011;38812;50.942;3.644;2022-07-04T06:22:15;17.55;;;5.97;;
52948;SDS011;38812;50.942;3.644;2022-07-04T06:24:41;15.73;;;6.13;;
52948;SDS011;38812;50.942;3.644;2022-07-04T06:27:06;18.80;;;5.05;;
52948;SDS011;38812;50.942;3.644;2022-07-04T06:29:32;18.17;;;4.63;;
52948;SDS011;38812;50.942;3.644;2022-07-04T06:31:57;19.40;;;6.43;;
52948;SDS011;38812;50.942;3.644;2022-07-04T06:34:23;14.93;;;5.40;;
52948;SDS011;38812;50.942;3.644;2022-07-04T06:37:07;12.80;;;5.93;;
52948;SDS011;38812;50.942;3.644;2022-07-04T06:39:32;13.90;;;5.43;;
52948;SDS011;38812;50.942;3.644;2022-07-04T06:41:57;15.85;;;5.57;;
52948;SDS011;38812;50.942;3.644;2022-07-04T06:44:23;14.70;;;5.18;;
52948;SDS011;38812;50.942;3.644;2022-07-04T06:46:48;17.50;;;6.63;;
52948;SDS011;38812;50.942;3.644;2022-07-04T06:49:14;14.85;;;6.13;;
52948;SDS011;38812;50.942;3.644;2022-07-04T06:51:39;14.98;;;6.68;;
52948;SDS011;38812;50.942;3.644;2022-07-04T06:54:04;15.57;;;5.82;;
52948;SDS011;38812;50.942;3.644;2022-07-04T06:56:30;19.88;;;6.60;;
52948;SDS011;38812;50.942;3.644;2022-07-04T06:58:56;23.67;;;6.55;;
52948;SDS011;38812;50.942;3.644;2022-07-04T07:01:21;20.80;;;6.95;;
52948;SDS011;38812;50.942;3.644;2022-07-04T07:03:47;17.73;;;6.43;;
52948;SDS011;38812;50.942;3.644;2022-07-04T07:06:12;21.80;;;7.53;;
52948;SDS011;38812;50.942;3.644;2022-07-04T07:08:38;25.50;;;8.02;;
52948;SDS011;38812;50.942;3.644;2022-07-04T07:11:03;23.30;;;7.88;;
52948;SDS011;38812;50.942;3.644;2022-07-04T07:13:42;17.05;;;7.43;;
52948;SDS011;38812;50.942;3.644;2022-07-04T07:16:09;25.08;;;8.15;;
52948;SDS011;38812;50.942;3.644;2022-07-04T07:18:34;19.80;;;8.18;;
52948;SDS011;38812;50.942;3.644;2022-07-04T07:21:00;14.85;;;7.57;;
52948;SDS011;38812;50.942;3.644;2022-07-04T07:23:26;19.42;;;7.72;;
52948;SDS011;38812;50.942;3.644;2022-07-04T07:25:51;16.30;;;7.30;;
52948;SDS011;38812;50.942;3.644;2022-07-04T07:28:16;14.40;;;6.60;;
52948;SDS011;38812;50.942;3.644;2022-07-04T07:30:43;15.55;;;6.50;;
52948;SDS011;38812;50.942;3.644;2022-07-04T07:33:09;19.83;;;7.30;;
52948;SDS011;38812;50.942;3.644;2022-07-04T07:35:35;17.85;;;7.25;;
52948;SDS011;38812;50.942;3.644;2022-07-04T07:38:01;16.85;;;6.30;;
52948;SDS011;38812;50.942;3.644;2022-07-04T07:40:26;16.35;;;7.03;;
52948;SDS011;38812;50.942;3.644;2022-07-04T07:42:52;18.40;;;7.45;;
52948;SDS011;38812;50.942;3.644;2022-07-04T07:45:19;23.40;;;7.28;;
52948;SDS011;38812;50.942;3.644;2022-07-04T07:47:45;21.13;;;7.82;;
52948;SDS011;38812;50.942;3.644;2022-07-04T07:50:12;17.73;;;6.68;;
52948;SDS011;38812;50.942;3.644;2022-07-04T07:52:38;19.38;;;7.00;;
52948;SDS011;38812;50.942;3.644;2022-07-04T07:55:04;19.55;;;7.70;;
52948;SDS011;38812;50.942;3.644;2022-07-04T07:57:30;17.77;;;6.75;;
52948;SDS011;38812;50.942;3.644;2022-07-04T07:59:56;15.60;;;5.85;;
52948;SDS011;38812;50.942;3.644;2022-07-04T08:02:21;16.63;;;6.07;;
52948;SDS011;38812;50.942;3.644;2022-07-04T08:05:05;17.52;;;5.70;;
52948;SDS011;38812;50.942;3.644;2022-07-04T08:07:31;16.40;;;6.00;;
52948;SDS011;38812;50.942;3.644;2022-07-04T08:09:56;17.85;;;6.55;;
52948;SDS011;38812;50.942;3.644;2022-07-04T08:12:22;13.50;;;5.72;;
52948;SDS011;38812;50.942;3.644;2022-07-04T08:14:47;17.83;;;6.50;;
52948;SDS011;38812;50.942;3.644;2022-07-04T08:17:13;19.00;;;6.47;;
52948;SDS011;38812;50.942;3.644;2022-07-04T08:19:38;12.68;;;4.97;;
52948;SDS011;38812;50.942;3.644;2022-07-04T08:22:03;13.55;;;5.60;;
52948;SDS011;38812;50.942;3.644;2022-07-04T08:24:29;13.02;;;4.70;;
52948;SDS011;38812;50.942;3.644;2022-07-04T08:26:54;13.93;;;4.85;;
52948;SDS011;38812;50.942;3.644;2022-07-04T08:29:20;14.20;;;4.68;;
52948;SDS011;38812;50.942;3.644;2022-07-04T08:31:45;12.20;;;4.30;;
52948;SDS011;38812;50.942;3.644;2022-07-04T08:34:11;12.90;;;3.65;;
52948;SDS011;38812;50.942;3.644;2022-07-04T08:36:37;8.38;;;3.70;;
52948;SDS011;38812;50.942;3.644;2022-07-04T08:39:02;7.80;;;3.60;;
52948;SDS011;38812;50.942;3.644;2022-07-04T08:41:28;14.52;;;4.43;;
52948;SDS011;38812;50.942;3.644;2022-07-04T08:43:58;12.10;;;3.25;;
52948;SDS011;38812;50.942;3.644;2022-07-04T08:46:25;11.10;;;3.33;;
52948;SDS011;38812;50.942;3.644;2022-07-04T08:48:52;9.43;;;2.97;;
52948;SDS011;38812;50.942;3.644;2022-07-04T08:51:29;8.18;;;2.95;;
52948;SDS011;38812;50.942;3.644;2022-07-04T08:54:06;9.77;;;2.63;;
52948;SDS011;38812;50.942;3.644;2022-07-04T08:56:54;9.07;;;2.65;;
52948;SDS011;38812;50.942;3.644;2022-07-04T08:59:39;9.10;;;2.63;;
52948;SDS011;38812;50.942;3.644;2022-07-04T09:02:05;5.00;;;2.53;;
52948;SDS011;38812;50.942;3.644;2022-07-04T09:04:32;10.80;;;3.30;;
52948;SDS011;38812;50.942;3.644;2022-07-04T09:06:58;12.40;;;2.92;;
52948;SDS011;38812;50.942;3.644;2022-07-04T09:09:23;7.28;;;2.80;;
52948;SDS011;38812;50.942;3.644;2022-07-04T09:11:50;7.20;;;2.60;;
52948;SDS011;38812;50.942;3.644;2022-07-04T09:14:16;10.10;;;2.05;;
52948;SDS011;38812;50.942;3.644;2022-07-04T09:16:41;15.38;;;3.22;;
52948;SDS011;38812;50.942;3.644;2022-07-04T09:19:18;5.07;;;2.28;;
52948;SDS011;38812;50.942;3.644;2022-07-04T09:21:45;6.43;;;2.15;;
52948;SDS011;38812;50.942;3.644;2022-07-04T09:24:11;6.90;;;2.30;;
52948;SDS011;38812;50.942;3.644;2022-07-04T09:26:39;8.77;;;2.10;;
52948;SDS011;38812;50.942;3.644;2022-07-04T09:29:08;7.05;;;2.10;;
52948;SDS011;38812;50.942;3.644;2022-07-04T09:31:34;6.63;;;1.70;;
52948;SDS011;38812;50.942;3.644;2022-07-04T09:34:00;12.77;;;2.67;;
52948;SDS011;38812;50.942;3.644;2022-07-04T09:36:30;10.73;;;2.78;;
52948;SDS011;38812;50.942;3.644;2022-07-04T09:44:44;7.10;;;1.90;;
52948;SDS011;38812;50.942;3.644;2022-07-04T09:47:24;3.80;;;1.95;;
52948;SDS011;38812;50.942;3.644;2022-07-04T09:50:00;9.57;;;2.17;;
52948;SDS011;38812;50.942;3.644;2022-07-04T09:52:52;4.80;;;1.70;;
52948;SDS011;38812;50.942;3.644;2022-07-04T09:55:28;8.13;;;1.88;;
52948;SDS011;38812;50.942;3.644;2022-07-04T09:58:02;5.70;;;2.10;;
52948;SDS011;38812;50.942;3.644;2022-07-04T10:00:36;7.68;;;2.05;;
52948;SDS011;38812;50.942;3.644;2022-07-04T10:03:16;5.13;;;1.98;;
52948;SDS011;38812;50.942;3.644;2022-07-04T10:05:44;6.22;;;1.98;;
52948;SDS011;38812;50.942;3.644;2022-07-04T10:08:11;5.53;;;1.85;;
52948;SDS011;38812;50.942;3.644;2022-07-04T10:10:37;7.82;;;1.65;;
52948;SDS011;38812;50.942;3.644;2022-07-04T10:13:05;7.20;;;1.42;;
52948;SDS011;38812;50.942;3.644;2022-07-04T10:15:33;7.18;;;1.65;;
52948;SDS011;38812;50.942;3.644;2022-07-04T10:18:02;8.50;;;2.13;;
52948;SDS011;38812;50.942;3.644;2022-07-04T10:20:28;6.47;;;2.33;;
52948;SDS011;38812;50.942;3.644;2022-07-04T10:22:54;11.10;;;2.28;;
52948;SDS011;38812;50.942;3.644;2022-07-04T10:25:19;11.00;;;1.88;;
52948;SDS011;38812;50.942;3.644;2022-07-04T10:27:45;4.70;;;1.27;;
52948;SDS011;38812;50.942;3.644;2022-07-04T10:30:14;4.32;;;1.85;;
52948;SDS011;38812;50.942;3.644;2022-07-04T10:32:42;5.35;;;1.65;;
52948;SDS011;38812;50.942;3.644;2022-07-04T10:35:12;6.70;;;1.70;;
52948;SDS011;38812;50.942;3.644;2022-07-04T10:40:43;4.22;;;1.20;;
52948;SDS011;38812;50.942;3.644;2022-07-04T10:48:54;5.20;;;1.70;;
52948;SDS011;38812;50.942;3.644;2022-07-04T10:59:11;4.57;;;2.28;;
52948;SDS011;38812;50.942;3.644;2022-07-04T11:01:45;6.57;;;2.08;;
52948;SDS011;38812;50.942;3.644;2022-07-04T11:05:26;6.15;;;2.10;;
52948;SDS011;38812;50.942;3.644;2022-07-04T11:15:21;7.55;;;1.88;;
52948;SDS011;38812;50.942;3.644;2022-07-04T11:18:13;3.97;;;1.67;;
52948;SDS011;38812;50.942;3.644;2022-07-04T11:20:43;8.27;;;1.85;;
52948;SDS011;38812;50.942;3.644;2022-07-04T11:23:13;6.25;;;2.00;;
52948;SDS011;38812;50.942;3.644;2022-07-04T11:25:41;5.05;;;1.50;;
52948;SDS011;38812;50.942;3.644;2022-07-04T11:30:54;6.35;;;1.38;;
52948;SDS011;38812;50.942;3.644;2022-07-04T11:33:23;3.90;;;1.40;;
52948;SDS011;38812;50.942;3.644;2022-07-04T11:41:09;7.72;;;2.35;;
52948;SDS011;38812;50.942;3.644;2022-07-04T11:43:54;5.85;;;1.25;;
52948;SDS011;38812;50.942;3.644;2022-07-04T11:46:38;6.55;;;1.38;;
52948;SDS011;38812;50.942;3.644;2022-07-04T11:49:10;5.90;;;1.80;;
52948;SDS011;38812;50.942;3.644;2022-07-04T11:51:41;5.50;;;1.70;;
52948;SDS011;38812;50.942;3.644;2022-07-04T11:54:07;4.07;;;1.47;;
52948;SDS011;38812;50.942;3.644;2022-07-04T11:56:32;5.25;;;1.63;;
52948;SDS011;38812;50.942;3.644;2022-07-04T11:58:58;8.27;;;2.13;;
52948;SDS011;38812;50.942;3.644;2022-07-04T12:01:35;7.80;;;1.75;;
52948;SDS011;38812;50.942;3.644;2022-07-04T12:04:17;4.38;;;1.40;;
52948;SDS011;38812;50.942;3.644;2022-07-04T12:06:45;2.28;;;1.20;;
52948;SDS011;38812;50.942;3.644;2022-07-04T12:09:12;4.22;;;1.30;;
52948;SDS011;38812;50.942;3.644;2022-07-04T12:11:54;6.95;;;1.73;;
52948;SDS011;38812;50.942;3.644;2022-07-04T12:14:23;5.13;;;1.25;;
52948;SDS011;38812;50.942;3.644;2022-07-04T12:17:10;3.42;;;1.30;;
52948;SDS011;38812;50.942;3.644;2022-07-04T12:19:56;6.15;;;1.63;;
52948;SDS011;38812;50.942;3.644;2022-07-04T12:25:04;6.78;;;1.67;;
52948;SDS011;38812;50.942;3.644;2022-07-04T12:27:32;4.28;;;1.65;;
52948;SDS011;38812;50.942;3.644;2022-07-04T12:29:58;5.88;;;1.85;;
52948;SDS011;38812;50.942;3.644;2022-07-04T12:32:42;8.00;;;1.63;;
52948;SDS011;38812;50.942;3.644;2022-07-04T12:35:08;5.65;;;1.80;;
52948;SDS011;38812;50.942;3.644;2022-07-04T12:37:34;3.78;;;1.35;;
52948;SDS011;38812;50.942;3.644;2022-07-04T12:40:06;3.65;;;1.52;;
52948;SDS011;38812;50.942;3.644;2022-07-04T12:42:33;5.15;;;1.77;;
52948;SDS011;38812;50.942;3.644;2022-07-04T12:45:04;4.75;;;1.27;;
52948;SDS011;38812;50.942;3.644;2022-07-04T12:47:34;3.28;;;1.20;;
52948;SDS011;38812;50.942;3.644;2022-07-04T12:49:59;5.85;;;1.48;;
52948;SDS011;38812;50.942;3.644;2022-07-04T12:52:28;5.55;;;1.40;;
52948;SDS011;38812;50.942;3.644;2022-07-04T12:55:03;2.78;;;0.80;;
52948;SDS011;38812;50.942;3.644;2022-07-04T12:57:32;4.35;;;1.08;;
52948;SDS011;38812;50.942;3.644;2022-07-04T12:59:57;5.63;;;1.42;;
52948;SDS011;38812;50.942;3.644;2022-07-04T13:02:22;4.93;;;1.48;;
52948;SDS011;38812;50.942;3.644;2022-07-04T13:04:48;6.20;;;1.50;;
52948;SDS011;38812;50.942;3.644;2022-07-04T13:07:14;11.82;;;1.25;;
52948;SDS011;38812;50.942;3.644;2022-07-04T13:09:44;2.50;;;1.10;;
52948;SDS011;38812;50.942;3.644;2022-07-04T13:12:12;5.37;;;1.30;;
52948;SDS011;38812;50.942;3.644;2022-07-04T13:14:50;4.68;;;1.27;;
52948;SDS011;38812;50.942;3.644;2022-07-04T13:17:17;2.33;;;1.02;;
52948;SDS011;38812;50.942;3.644;2022-07-04T13:19:43;1.85;;;1.20;;
52948;SDS011;38812;50.942;3.644;2022-07-04T13:22:08;4.55;;;1.23;;
52948;SDS011;38812;50.942;3.644;2022-07-04T13:24:33;1.65;;;0.82;;
52948;SDS011;38812;50.942;3.644;2022-07-04T13:26:59;4.93;;;1.40;;
52948;SDS011;38812;50.942;3.644;2022-07-04T13:29:24;4.72;;;1.33;;
52948;SDS011;38812;50.942;3.644;2022-07-04T13:31:50;5.18;;;1.55;;
52948;SDS011;38812;50.942;3.644;2022-07-04T13:34:15;3.25;;;1.38;;
52948;SDS011;38812;50.942;3.644;2022-07-04T13:36:41;2.53;;;1.10;;
52948;SDS011;38812;50.942;3.644;2022-07-04T13:39:07;2.53;;;0.85;;
52948;SDS011;38812;50.942;3.644;2022-07-04T13:41:32;2.88;;;1.10;;
52948;SDS011;38812;50.942;3.644;2022-07-04T13:44:02;4.53;;;1.27;;
52948;SDS011;38812;50.942;3.644;2022-07-04T13:46:29;3.50;;;1.45;;
52948;SDS011;38812;50.942;3.644;2022-07-04T13:48:56;3.67;;;1.55;;
52948;SDS011;38812;50.942;3.644;2022-07-04T13:51:22;4.88;;;1.15;;
52948;SDS011;38812;50.942;3.644;2022-07-04T13:53:47;5.43;;;1.10;;
52948;SDS011;38812;50.942;3.644;2022-07-04T13:56:13;7.13;;;1.13;;
52948;SDS011;38812;50.942;3.644;2022-07-04T13:58:41;5.43;;;1.05;;
52948;SDS011;38812;50.942;3.644;2022-07-04T14:01:08;7.15;;;1.27;;
52948;SDS011;38812;50.942;3.644;2022-07-04T14:03:33;5.10;;;1.40;;
52948;SDS011;38812;50.942;3.644;2022-07-04T14:05:59;4.15;;;1.10;;
52948;SDS011;38812;50.942;3.644;2022-07-04T14:08:25;2.10;;;1.20;;
52948;SDS011;38812;50.942;3.644;2022-07-04T14:10:51;5.43;;;1.42;;
52948;SDS011;38812;50.942;3.644;2022-07-04T14:13:16;2.78;;;1.10;;
52948;SDS011;38812;50.942;3.644;2022-07-04T14:15:41;7.55;;;1.35;;
52948;SDS011;38812;50.942;3.644;2022-07-04T14:18:07;1.58;;;1.10;;
52948;SDS011;38812;50.942;3.644;2022-07-04T14:20:38;6.60;;;1.73;;
52948;SDS011;38812;50.942;3.644;2022-07-04T14:23:04;1.75;;;1.42;;
52948;SDS011;38812;50.942;3.644;2022-07-04T14:25:29;4.47;;;0.85;;
52948;SDS011;38812;50.942;3.644;2022-07-04T14:27:55;4.97;;;1.58;;
52948;SDS011;38812;50.942;3.644;2022-07-04T14:30:20;3.35;;;1.02;;
52948;SDS011;38812;50.942;3.644;2022-07-04T14:32:45;4.75;;;1.23;;
52948;SDS011;38812;50.942;3.644;2022-07-04T14:35:11;10.90;;;1.40;;
52948;SDS011;38812;50.942;3.644;2022-07-04T14:37:38;5.45;;;1.25;;
52948;SDS011;38812;50.942;3.644;2022-07-04T14:40:03;3.17;;;1.20;;
52948;SDS011;38812;50.942;3.644;2022-07-04T14:42:29;1.80;;;1.00;;
52948;SDS011;38812;50.942;3.644;2022-07-04T14:44:54;5.20;;;1.42;;
52948;SDS011;38812;50.942;3.644;2022-07-04T14:47:20;4.45;;;1.23;;
52948;SDS011;38812;50.942;3.644;2022-07-04T14:49:45;5.45;;;1.40;;
52948;SDS011;38812;50.942;3.644;2022-07-04T14:52:11;6.25;;;1.30;;
52948;SDS011;38812;50.942;3.644;2022-07-04T14:54:36;2.25;;;1.20;;
52948;SDS011;38812;50.942;3.644;2022-07-04T14:57:01;2.08;;;1.10;;
52948;SDS011;38812;50.942;3.644;2022-07-04T14:59:27;4.03;;;1.52;;
52948;SDS011;38812;50.942;3.644;2022-07-04T15:01:53;4.70;;;1.13;;
52948;SDS011;38812;50.942;3.644;2022-07-04T15:04:18;4.28;;;1.23;;
52948;SDS011;38812;50.942;3.644;2022-07-04T15:06:44;3.90;;;1.13;;
52948;SDS011;38812;50.942;3.644;2022-07-04T15:09:09;5.68;;;1.40;;
52948;SDS011;38812;50.942;3.644;2022-07-04T15:11:35;6.03;;;1.67;;
52948;SDS011;38812;50.942;3.644;2022-07-04T15:14:00;5.53;;;1.13;;
52948;SDS011;38812;50.942;3.644;2022-07-04T15:16:26;4.50;;;1.50;;
52948;SDS011;38812;50.942;3.644;2022-07-04T15:18:51;4.63;;;1.83;;
52948;SDS011;38812;50.942;3.644;2022-07-04T15:21:17;6.85;;;1.50;;
52948;SDS011;38812;50.942;3.644;2022-07-04T15:24:01;3.70;;;1.65;;
52948;SDS011;38812;50.942;3.644;2022-07-04T15:26:36;4.65;;;2.42;;